Time;durP1;ratioP1;P1;durP2;ratioP2;P2;SDS_P1;SDS_P2;PMS_P1;PMS_P2;Temp;Humidity;BMP_temperature;BMP_pressure;BME280_temperature;BME280_humidity;BME280_pressure;Samples;Min_cycle;Max_cycle;Signal;HPM_P1;HPM_P2
2023/01/28 00:01:54;;;;;;;;;;;;;;;0.48;99.14;98061.19;5327097;27;20024;-81
2023/01/28 00:04:21;;;;;;;49.30;18.20;;;;;;;0.73;97.19;98065.31;5327502;27;20417;-81
2023/01/28 00:06:47;;;;;;;;;;;;;;;0.41;99.41;98067.94;5327464;27;20060;-80
2023/01/28 00:09:14;;;;;;;46.83;17.45;;;;;;;0.16;100.00;98069.69;5327037;27;19968;-80
2023/01/28 00:11:41;;;;;;;;;;;;;;;0.68;98.07;98069.59;5307836;27;20053;-80
2023/01/28 00:14:10;;;;;;;48.90;18.57;;;;;;;0.63;99.03;98075.50;5326506;27;20341;-81
2023/01/28 00:16:37;;;;;;;50.65;18.05;;;;;;;0.69;98.06;98078.91;5327108;27;20053;-80
2023/01/28 00:19:04;;;;;;;40.53;14.95;;;;;;;0.75;97.84;98070.44;5326588;27;20102;-80
2023/01/28 00:21:31;;;;;;;51.65;19.62;;;;;;;0.52;99.19;98081.47;5307067;27;20052;-80
2023/01/28 00:23:58;;;;;;;;;;;;;;;0.79;97.19;98077.16;5327325;27;20086;-80
2023/01/28 00:26:25;;;;;;;39.25;17.50;;;;;;;0.41;99.33;98078.09;5327231;27;20014;-80
2023/01/28 00:28:52;;;;;;;48.20;19.37;;;;;;;0.49;100.00;98071.31;5326429;27;20061;-80
2023/01/28 00:31:23;;;;;;;48.85;20.17;;;;;;;0.89;97.76;98075.44;5326604;27;20367;-80
2023/01/28 00:33:51;;;;;;;49.83;18.42;;;;;;;0.52;99.13;98073.00;5306978;27;20044;-80
2023/01/28 00:36:20;;;;;;;56.20;20.83;;;;;;;0.58;98.79;98076.38;5325984;27;20052;-80
2023/01/28 00:38:52;;;;;;;36.40;14.48;;;;;;;0.53;98.94;98078.09;5326426;27;20074;-80
2023/01/28 00:41:23;;;;;;;43.65;16.00;;;;;;;0.42;100.00;98069.62;5306600;27;20120;-80
2023/01/28 00:43:51;;;;;;;44.90;17.60;;;;;;;0.08;100.00;98083.22;5306656;27;20045;-80
2023/01/28 00:46:19;;;;;;;51.75;17.70;;;;;;;0.00;100.00;98090.88;5326534;27;20057;-80
2023/01/28 00:48:46;;;;;;;46.65;15.38;;;;;;;0.15;100.00;98085.78;5326131;27;20426;-80
2023/01/28 00:51:16;;;;;;;55.58;21.55;;;;;;;0.09;100.00;98085.75;5325935;27;20055;-80
2023/01/28 00:53:43;;;;;;;51.22;19.83;;;;;;;0.63;100.00;98083.13;5306974;27;20056;-80
2023/01/28 00:56:13;;;;;;;52.08;19.45;;;;;;;0.79;99.91;98075.47;5326340;27;20076;-80
2023/01/28 00:58:40;;;;;;;49.35;20.55;;;;;;;0.86;98.51;98079.69;5306559;27;20060;-80
2023/01/28 01:01:18;;;;;;;48.15;18.00;;;;;;;0.31;100.00;98078.13;5306464;27;20057;-80
2023/01/28 01:03:46;;;;;;;46.50;17.85;;;;;;;0.35;100.00;98075.59;5326321;27;20059;-80
2023/01/28 01:06:14;;;;;;;52.30;20.08;;;;;;;0.33;100.00;98071.38;5326395;27;20057;-80
2023/01/28 01:08:49;;;;;;;50.60;19.90;;;;;;;0.39;100.00;98078.97;5326357;27;20057;-80
2023/01/28 01:11:16;;;;;;;52.55;19.55;;;;;;;0.78;99.43;98083.94;5307633;27;20049;-80
2023/01/28 01:13:43;;;;;;;40.88;14.98;;;;;;;0.72;98.74;98083.94;5326448;27;20053;-80
2023/01/28 01:16:11;;;;;;;;;;;;;;;0.47;100.00;98080.66;5326412;27;20057;-80
2023/01/28 01:18:40;;;;;;;53.20;22.02;;;;;;;0.41;100.00;98084.88;5325229;27;20035;-80
2023/01/28 01:21:11;;;;;;;51.80;18.62;;;;;;;0.46;100.00;98085.72;5325959;27;20102;-80
2023/01/28 01:23:38;;;;;;;52.97;20.08;;;;;;;0.68;100.00;98089.91;5326168;27;20044;-80
2023/01/28 01:26:06;;;;;;;52.30;19.87;;;;;;;0.48;100.00;98084.88;5325785;27;20056;-80
2023/01/28 01:28:33;;;;;;;53.22;19.92;;;;;;;0.80;99.97;98089.00;5306339;27;20118;-80
2023/01/28 01:31:06;;;;;;;54.05;20.88;;;;;;;0.56;100.00;98077.25;5306325;27;20408;-80
2023/01/28 01:33:34;;;;;;;48.97;18.50;;;;;;;1.00;98.06;98086.41;5306277;27;20045;-80
2023/01/28 01:36:01;;;;;;;51.33;19.80;;;;;;;0.66;100.00;98086.53;5326059;27;20025;-80
2023/01/28 01:38:27;;;;;;;;;;;;;;;0.45;100.00;98079.81;5319734;27;145405;-80
2023/01/28 01:40:58;;;;;;;57.05;20.33;;;;;;;0.55;100.00;98090.78;5325853;27;20254;-80
2023/01/28 01:43:47;;;;;;;48.50;19.75;;;;;;;0.58;100.00;98088.22;5326054;27;20079;-80
2023/01/28 01:46:16;;;;;;;48.05;18.40;;;;;;;0.46;100.00;98085.72;5325557;27;20072;-80
2023/01/28 01:48:43;;;;;;;46.28;17.80;;;;;;;0.47;100.00;98089.97;5325686;27;20021;-80
2023/01/28 01:51:14;;;;;;;47.78;18.37;;;;;;;0.40;100.00;98073.88;5325314;27;20098;-80
2023/01/28 01:53:44;;;;;;;58.20;20.80;;;;;;;0.40;100.00;98075.56;5325470;27;20041;-80
2023/01/28 01:56:15;;;;;;;53.28;19.65;;;;;;;0.34;100.00;98080.69;5306194;27;20061;-80
2023/01/28 01:58:44;;;;;;;50.03;20.08;;;;;;;0.32;100.00;98082.34;5325420;27;20073;-80
2023/01/28 02:01:12;;;;;;;52.53;18.62;;;;;;;0.16;100.00;98084.06;5305551;27;20048;-80
2023/01/28 02:04:04;;;;;;;54.60;18.60;;;;;;;0.02;100.00;98079.03;5325896;27;20088;-80
2023/01/28 02:06:31;;;;;;;37.67;15.05;;;;;;;0.27;100.00;98079.84;5298027;27;20122;-81
2023/01/28 02:08:58;;;;;;;50.65;17.45;;;;;;;0.41;100.00;98080.66;5306349;27;20313;-80
2023/01/28 02:11:25;;;;;;;;;;;;;;;0.34;100.00;98084.06;5326872;27;20057;-80
2023/01/28 02:13:54;;;;;;;53.83;19.67;;;;;;;0.10;100.00;98081.53;5326467;27;19956;-80
2023/01/28 02:16:23;;;;;;;39.15;14.95;;;;;;;0.13;100.00;98084.09;5326650;27;20117;-80
2023/01/28 02:18:50;;;;;;;51.05;19.65;;;;;;;0.33;100.00;98076.44;5326173;27;20057;-80
2023/01/28 02:21:59;;;;;;;45.78;18.87;;;;;;;0.24;100.00;98088.31;5306384;27;20509;-80
2023/01/28 02:24:41;;;;;;;50.63;20.37;;;;;;;0.36;100.00;98096.75;5293656;27;20051;-80
2023/01/28 02:27:21;;;;;;;53.42;18.17;;;;;;;0.31;100.00;98093.34;5326019;27;20057;-80
2023/01/28 02:29:51;;;;;;;58.05;20.50;;;;;;;0.15;100.00;98090.84;5326158;27;20060;-80
2023/01/28 02:32:26;;;;;;;52.80;20.10;;;;;;;0.34;100.00;98091.69;5326378;27;20437;-80
2023/01/28 02:35:17;;;;;;;46.78;17.73;;;;;;;0.43;100.00;98091.66;5302684;27;20060;-81
2023/01/28 02:38:05;;;;;;;50.45;18.05;;;;;;;0.38;100.00;98097.59;5302853;27;20112;-80
2023/01/28 02:41:00;;;;;;;53.47;19.95;;;;;;;-0.01;100.00;98090.00;5302886;27;20064;-80
2023/01/28 02:43:37;;;;;;;57.22;22.62;;;;;;;0.45;100.00;98086.59;5324954;27;20099;-80
2023/01/28 02:49:10;;;;;;;34.50;13.07;;;;;;;0.11;100.00;98091.72;5326188;27;20056;-80
2023/01/28 02:51:58;;;;;;;51.55;18.85;;;;;;;-0.10;100.00;98091.72;5306319;27;20064;-80
2023/01/28 02:55:06;;;;;;;42.17;16.65;;;;;;;-0.01;100.00;98099.28;5326021;27;20358;-80
2023/01/28 02:57:42;;;;;;;45.30;15.23;;;;;;;-0.15;100.00;98095.91;5325367;27;20057;-80
2023/01/28 03:00:41;;;;;;;43.28;16.62;;;;;;;-0.27;100.00;98090.84;5306043;27;20056;-80
2023/01/28 03:03:08;;;;;;;45.20;17.42;;;;;;;-0.01;100.00;98094.22;5306262;27;20407;-80
2023/01/28 03:05:35;;;;;;;;;;;;;;;-0.09;100.00;98091.72;5326302;27;20067;-80
2023/01/28 03:09:21;;;;;;;46.00;16.60;;;;;;;-0.16;100.00;98094.22;5325725;27;19935;-80
2023/01/28 03:38:51;;;;;;;45.33;18.13;;;;;;;-0.70;100.00;98106.81;5308499;27;20053;-80
2023/01/28 03:41:21;;;;;;;43.95;16.20;;;;;;;-0.22;100.00;98112.81;5305834;27;20170;-80
2023/01/28 03:43:49;;;;;;;43.47;15.75;;;;;;;0.05;100.00;98112.00;5306100;27;20065;-80
2023/01/28 03:46:17;;;;;;;42.13;16.00;;;;;;;0.02;100.00;98117.06;5306038;27;20118;-80
2023/01/28 03:48:44;;;;;;;47.65;18.37;;;;;;;-0.12;100.00;98113.66;5306156;27;20108;-80
2023/01/28 03:51:11;;;;;;;44.72;17.92;;;;;;;-0.21;100.00;98113.66;5325657;27;20502;-80
2023/01/28 03:53:39;;;;;;;35.90;13.62;;;;;;;0.38;100.00;98115.34;5325501;27;20057;-80
2023/01/28 03:56:06;;;;;;;43.87;16.33;;;;;;;-0.06;100.00;98112.00;5325817;27;20053;-80
2023/01/28 03:58:51;;;;;;;43.28;16.60;;;;;;;-0.09;100.00;98114.53;5325674;27;20049;-81
2023/01/28 04:01:19;;;;;;;43.60;16.08;;;;;;;-0.04;100.00;98111.97;5325511;27;20048;-80
2023/01/28 04:03:46;;;;;;;37.75;14.10;;;;;;;-0.27;100.00;98109.44;5306274;27;20383;-80
2023/01/28 04:06:13;;;;;;;39.80;14.70;;;;;;;-0.23;100.00;98105.19;5305738;27;20057;-80
2023/01/28 04:08:44;;;;;;;36.60;14.75;;;;;;;-0.58;100.00;98118.66;5325461;27;20122;-80
2023/01/28 04:11:14;;;;;;;41.67;16.42;;;;;;;-0.28;100.00;98106.91;5305825;27;20086;-80
2023/01/28 04:13:42;;;;;;;35.58;14.05;;;;;;;-0.07;100.00;98106.91;5325416;27;20356;-80
2023/01/28 04:16:12;;;;;;;38.10;15.38;;;;;;;-0.30;100.00;98105.22;5305995;27;20064;-80
2023/01/28 04:18:39;;;;;;;34.95;14.40;;;;;;;-0.23;100.00;98103.50;5325443;27;20052;-80
2023/01/28 04:21:06;;;;;;;42.75;15.25;;;;;;;-0.06;100.00;98114.53;5325121;27;20063;-80
2023/01/28 04:23:33;;;;;;;40.72;15.55;;;;;;;-0.18;100.00;98101.84;5325671;27;20061;-80
2023/01/28 04:26:00;;;;;;;31.73;13.57;;;;;;;0.06;100.00;98102.69;5325595;27;20065;-80
2023/01/28 04:28:27;;;;;;;32.72;12.48;;;;;;;-0.17;100.00;98107.75;5305303;27;20048;-80
2023/01/28 04:30:54;;;;;;;;;;;;;;;0.10;98.40;98114.50;5325912;27;20049;-80
2023/01/28 04:33:22;;;;;;;35.25;14.98;;;;;;;0.01;98.69;98110.31;5305795;27;19964;-80
2023/01/28 04:35:48;;;;;;;32.63;14.23;;;;;;;0.34;97.77;98113.69;5325659;27;20056;-80
2023/01/28 04:38:15;;;;;;;29.75;11.23;;;;;;;-0.09;98.86;98112.00;5325801;27;20116;-80
2023/01/28 04:40:42;;;;;;;39.28;13.77;;;;;;;-0.30;100.00;98110.28;5325408;27;20049;-80
2023/01/28 04:43:09;;;;;;;;;;;;;;;-0.28;100.00;98114.50;5326477;27;20061;-80
2023/01/28 04:45:36;;;;;;;37.47;14.43;;;;;;;0.02;98.34;98116.22;5326538;27;19967;-80
2023/01/28 04:48:02;;;;;;;;;;;;;;;0.05;98.12;98119.59;5326306;27;20052;-80
2023/01/28 04:50:29;;;;;;;33.13;12.57;;;;;;;-0.35;100.00;98129.69;5325912;27;19971;-80
2023/01/28 04:52:56;;;;;;;;;;;;;;;0.05;98.19;98131.44;5326597;27;20184;-80
2023/01/28 04:55:23;;;;;;;36.53;12.90;;;;;;;0.20;96.91;98139.88;5325746;27;19964;-81
2023/01/28 04:57:50;;;;;;;34.00;13.10;;;;;;;0.03;98.61;98138.22;5325882;27;20063;-80
2023/01/28 05:00:17;;;;;;;;;;;;;;;0.52;95.78;98144.09;5326428;27;20097;-80
2023/01/28 05:02:44;;;;;;;31.35;11.93;;;;;;;0.19;98.15;98145.81;5306817;27;19960;-80
2023/01/28 05:05:11;;;;;;;34.30;12.88;;;;;;;-0.25;99.05;98140.69;5325936;27;20065;-80
2023/01/28 05:07:38;;;;;;;35.03;13.77;;;;;;;0.22;96.80;98153.44;5326095;27;20073;-80
2023/01/28 05:10:06;;;;;;;34.72;14.30;;;;;;;0.15;96.53;98151.75;5325912;27;20105;-80
2023/01/28 05:12:33;;;;;;;36.53;14.63;;;;;;;-0.03;98.95;98151.72;5325860;27;20474;-80
2023/01/28 05:15:00;;;;;;;;;;;;;;;0.10;96.76;98150.88;5326211;27;20592;-80
2023/01/28 05:17:27;;;;;;;32.13;12.27;;;;;;;-0.19;97.97;98144.94;5325640;27;20626;-80
2023/01/28 05:19:54;;;;;;;32.67;11.68;;;;;;;-0.38;100.00;98146.59;5305801;27;20055;-80
2023/01/28 05:22:21;;;;;;;32.05;12.43;;;;;;;-0.44;99.80;98141.50;5325901;27;20116;-80
2023/01/28 05:24:48;;;;;;;32.13;13.00;;;;;;;-0.63;100.00;98151.63;5325315;27;20407;-80
2023/01/28 05:27:15;;;;;;;;;;;;;;;-0.63;100.00;98145.69;5326022;27;20028;-80
2023/01/28 05:29:42;;;;;;;36.63;13.55;;;;;;;-0.45;100.00;98144.88;5325747;27;20340;-80
2023/01/28 05:32:08;;;;;;;;;;;;;;;-0.50;100.00;98141.50;5326090;27;20060;-80
2023/01/28 05:34:35;;;;;;;36.15;14.45;;;;;;;-0.59;100.00;98142.31;5325475;27;20020;-80
2023/01/28 05:37:02;;;;;;;30.60;11.80;;;;;;;-0.36;100.00;98149.97;5325221;27;20102;-80
2023/01/28 05:39:30;;;;;;;37.67;15.25;;;;;;;-0.49;100.00;98138.12;5325349;27;20051;-80
2023/01/28 05:41:57;;;;;;;35.63;13.88;;;;;;;-0.68;100.00;98143.13;5305818;27;20060;-80
2023/01/28 05:44:24;;;;;;;40.00;14.82;;;;;;;-0.47;100.00;98139.81;5305343;27;20478;-80
2023/01/28 05:46:50;;;;;;;40.67;14.87;;;;;;;-0.77;100.00;98139.72;5325343;27;20056;-80
2023/01/28 05:49:17;;;;;;;34.50;15.57;;;;;;;-0.63;100.00;98150.78;5325489;27;20044;-80
2023/01/28 05:51:44;;;;;;;39.35;16.58;;;;;;;-0.52;100.00;98154.19;5324721;27;20086;-80
2023/01/28 05:54:11;;;;;;;37.35;12.95;;;;;;;-0.38;100.00;98149.97;5325213;27;20061;-80
2023/01/28 05:56:39;;;;;;;40.25;15.45;;;;;;;-0.75;100.00;98160.84;5325096;27;20064;-80
2023/01/28 05:59:06;;;;;;;42.67;15.57;;;;;;;-0.39;100.00;98158.44;5324485;27;20053;-80
2023/01/28 06:01:34;;;;;;;41.33;15.77;;;;;;;-0.31;99.85;98161.00;5324681;27;20090;-80
2023/01/28 06:04:01;;;;;;;38.30;15.60;;;;;;;-0.38;100.00;98162.66;5325464;27;20071;-80
2023/01/28 06:06:28;;;;;;;39.83;14.38;;;;;;;-0.13;99.01;98168.62;5325078;27;20384;-80
2023/01/28 06:08:55;;;;;;;38.90;14.93;;;;;;;-0.05;97.96;98161.88;5305531;27;20375;-80
2023/01/28 06:11:22;;;;;;;32.60;13.60;;;;;;;-0.08;97.84;98164.41;5325330;27;20072;-80
2023/01/28 06:13:49;;;;;;;38.33;14.65;;;;;;;0.39;94.39;98172.88;5325169;27;20516;-80
2023/01/28 06:16:16;;;;;;;42.72;14.43;;;;;;;0.12;95.60;98174.59;5325543;27;20063;-80
2023/01/28 06:18:43;;;;;;;38.05;14.38;;;;;;;0.11;96.31;98172.91;5325691;27;20072;-80
2023/01/28 06:21:10;;;;;;;34.15;13.50;;;;;;;0.51;93.11;98175.41;5325348;27;20136;-80
2023/01/28 06:23:37;;;;;;;34.45;14.32;;;;;;;0.45;93.82;98173.72;5326455;27;20071;-80
2023/01/28 06:26:04;;;;;;;31.45;13.68;;;;;;;0.23;95.00;98166.97;5306077;27;20068;-81
2023/01/28 06:28:31;;;;;;;;;;;;;;;0.48;94.10;98180.50;5325909;27;20056;-80
2023/01/28 06:30:57;;;;;;;30.88;13.18;;;;;;;0.46;93.46;98177.13;5325397;27;20318;-80
2023/01/28 06:33:24;;;;;;;32.55;12.52;;;;;;;0.86;91.58;98181.31;5325122;27;20062;-81
2023/01/28 06:35:51;;;;;;;37.25;12.70;;;;;;;0.66;91.44;98188.09;5306189;27;20065;-81
2023/01/28 06:38:18;;;;;;;35.75;14.85;;;;;;;0.26;94.64;98190.66;5325925;27;20079;-80
2023/01/28 06:40:50;;;;;;;;;;;;;;;0.62;92.26;98196.56;5326164;27;20057;-81
2023/01/28 06:43:17;;;;;;;31.70;13.32;;;;;;;0.75;92.87;98199.94;5327102;27;19971;-81
2023/01/28 06:45:44;;;;;;;27.98;11.10;;;;;;;0.52;93.66;98203.31;5326238;27;20101;-80
2023/01/28 06:48:10;;;;;;;;;;;;;;;0.03;96.04;98207.53;5326208;27;20609;-81
2023/01/28 06:50:37;;;;;;;37.78;13.75;;;;;;;0.54;93.93;98205.91;5326453;27;19937;-80
2023/01/28 06:53:04;;;;;;;;;;;;;;;0.23;93.40;98216.03;5327141;27;20061;-80
2023/01/28 06:55:31;;;;;;;35.47;13.45;;;;;;;0.25;94.47;98216.87;5327061;27;19960;-81
2023/01/28 06:57:58;;;;;;;;;;;;;;;0.13;96.12;98221.09;5327442;27;20045;-80
2023/01/28 07:00:29;;;;;;;34.75;13.75;;;;;;;0.24;95.81;98232.94;5327161;27;19964;-80
2023/01/28 07:02:56;;;;;;;37.15;13.62;;;;;;;0.02;96.19;98238.00;5327506;27;20060;-81
2023/01/28 07:05:23;;;;;;;36.67;14.93;;;;;;;-0.17;98.30;98230.31;5327564;27;20102;-81
2023/01/28 07:07:50;;;;;;;38.28;15.50;;;;;;;-0.54;100.00;98234.41;5327074;27;20099;-81
2023/01/28 07:10:17;;;;;;;38.75;14.50;;;;;;;-0.12;99.58;98226.09;5307602;27;20122;-81
2023/01/28 07:12:44;;;;;;;37.42;14.40;;;;;;;0.10;96.97;98233.75;5327379;27;20113;-80
2023/01/28 07:15:12;;;;;;;40.72;15.23;;;;;;;-0.04;97.92;98223.59;5327845;27;20319;-81
2023/01/28 07:17:42;;;;;;;40.67;16.80;;;;;;;0.30;95.75;98219.41;5327457;27;20048;-80
2023/01/28 07:20:11;;;;;;;39.17;14.63;;;;;;;-0.12;98.82;98220.19;5327628;27;20461;-80
2023/01/28 07:22:42;;;;;;;38.20;15.10;;;;;;;-0.09;97.55;98226.13;5327389;27;20101;-81
2023/01/28 07:25:10;;;;;;;42.42;16.05;;;;;;;-0.51;99.16;98231.06;5327475;27;20396;-80
2023/01/28 07:27:37;;;;;;;39.22;15.38;;;;;;;-0.22;99.05;98232.00;5307950;27;20045;-80
2023/01/28 07:30:05;;;;;;;44.72;15.75;;;;;;;-0.16;99.41;98236.25;5307417;27;20481;-81
2023/01/28 07:32:32;;;;;;;39.10;14.02;;;;;;;0.04;97.67;98232.06;5327284;27;20059;-80
2023/01/28 07:34:59;;;;;;;40.35;15.77;;;;;;;-0.32;98.81;98243.81;5327047;27;20184;-80
2023/01/28 07:37:25;;;;;;;;;;;;;;;0.20;96.93;98243.06;5327005;27;20102;-80
2023/01/28 07:39:54;;;;;;;31.73;12.37;;;;;;;-0.17;97.96;98250.63;5326964;27;20291;-80
2023/01/28 07:42:21;;;;;;;38.22;14.18;;;;;;;-0.33;100.00;98249.69;5327358;27;20071;-80
2023/01/28 07:44:48;;;;;;;;;;;;;;;-0.67;100.00;98258.00;5327398;27;20031;-81
2023/01/28 07:47:15;;;;;;;30.40;10.93;;;;;;;-0.37;100.00;98252.22;5307291;27;19949;-80
2023/01/28 07:49:42;;;;;;;33.08;13.07;;;;;;;-0.47;100.00;98258.94;5327281;27;20071;-80
2023/01/28 07:52:09;;;;;;;;;;;;;;;-0.21;100.00;98253.13;5327235;27;20098;-81
2023/01/28 07:54:36;;;;;;;40.47;14.87;;;;;;;-0.08;99.79;98250.66;5326907;27;19959;-80
2023/01/28 07:57:08;;;;;;;38.95;14.07;;;;;;;0.29;97.05;98263.41;5326935;27;20049;-80
2023/01/28 07:59:37;;;;;;;34.85;12.82;;;;;;;-0.08;97.29;98262.47;5327081;27;20052;-80
2023/01/28 08:02:05;;;;;;;35.13;14.25;;;;;;;-0.51;100.00;98259.78;5308069;27;20464;-80
2023/01/28 08:04:32;;;;;;;37.38;14.90;;;;;;;-0.02;98.98;98259.94;5327543;27;20055;-81
2023/01/28 08:06:59;;;;;;;32.83;13.20;;;;;;;-0.23;99.74;98255.66;5326909;27;20103;-80
2023/01/28 08:09:25;;;;;;;;;;;;;;;-0.18;98.54;98258.22;5327850;27;20369;-80
2023/01/28 08:11:53;;;;;;;35.85;13.55;;;;;;;-0.16;98.65;98257.38;5327106;27;19963;-81
2023/01/28 08:14:20;;;;;;;41.05;14.65;;;;;;;0.20;96.77;98260.84;5327942;27;20578;-80
2023/01/28 08:16:47;;;;;;;;;;;;;;;0.39;95.83;98271.87;5327848;27;20025;-80
2023/01/28 08:19:15;;;;;;;41.65;15.43;;;;;;;0.23;95.15;98269.31;5327445;27;19960;-81
2023/01/28 08:21:41;;;;;;;38.42;15.32;;;;;;;0.30;96.52;98267.62;5308216;27;20040;-81
2023/01/28 08:24:08;;;;;;;43.92;15.50;;;;;;;0.15;96.60;98258.31;5327929;27;20128;-81
2023/01/28 08:26:35;;;;;;;42.70;16.52;;;;;;;0.15;95.71;98270.16;5327554;27;20044;-81
2023/01/28 08:29:02;;;;;;;40.12;15.05;;;;;;;0.07;97.86;98267.59;5328019;27;20142;-81
2023/01/28 08:31:29;;;;;;;44.28;16.08;;;;;;;0.37;95.06;98269.34;5327355;27;20073;-80
2023/01/28 08:33:56;;;;;;;39.38;13.82;;;;;;;0.07;97.52;98270.13;5307964;27;20781;-81
2023/01/28 08:36:26;;;;;;;43.05;15.95;;;;;;;0.30;96.37;98267.62;5328059;27;20064;-80
2023/01/28 08:38:55;;;;;;;;;;;;;;;0.67;94.85;98271.06;5327829;27;20056;-80
2023/01/28 08:41:23;;;;;;;38.47;13.55;;;;;;;0.65;93.51;98275.28;5327802;27;19968;-80
2023/01/28 08:43:49;;;;;;;41.85;14.48;;;;;;;-0.12;97.74;98279.34;5327675;27;20059;-80
2023/01/28 08:46:16;;;;;;;;;;;;;;;0.22;97.17;98277.78;5327469;27;20025;-81
2023/01/28 08:48:43;;;;;;;40.12;15.25;;;;;;;0.26;96.66;98282.00;5327401;27;20355;-81
2023/01/28 08:51:10;;;;;;;37.00;14.60;;;;;;;0.62;94.13;98282.03;5327175;27;20071;-81
2023/01/28 08:53:37;;;;;;;;;;;;;;;0.38;95.22;98285.41;5328194;27;20098;-81
2023/01/28 08:56:04;;;;;;;43.33;15.63;;;;;;;0.43;95.03;98286.28;5327627;27;19956;-80
2023/01/28 08:58:31;;;;;;;39.42;13.27;;;;;;;0.40;94.13;98283.72;5327013;27;20388;-80
2023/01/28 09:01:03;;;;;;;42.00;16.25;;;;;;;0.07;97.54;98282.81;5327156;27;20065;-80
2023/01/28 09:03:30;;;;;;;38.63;15.88;;;;;;;0.56;94.92;98282.91;5327528;27;20102;-80
2023/01/28 09:06:02;;;;;;;40.53;15.55;;;;;;;0.89;92.83;98282.06;5327750;27;20049;-80
2023/01/28 09:08:28;;;;;;;35.40;14.57;;;;;;;0.42;95.41;98287.94;5327294;27;20065;-81
2023/01/28 09:10:57;;;;;;;40.63;15.98;;;;;;;0.53;93.76;98287.97;5327327;27;20071;-81
2023/01/28 09:13:24;;;;;;;41.75;16.25;;;;;;;0.12;96.06;98295.53;5308322;27;20059;-80
2023/01/28 09:15:51;;;;;;;36.15;14.43;;;;;;;0.52;94.59;98296.41;5328348;27;20056;-81
2023/01/28 09:18:18;;;;;;;39.88;15.70;;;;;;;0.80;93.53;98289.69;5327538;27;20506;-81
2023/01/28 09:20:45;;;;;;;40.40;14.48;;;;;;;0.67;93.79;98288.00;5329108;27;20490;-81
2023/01/28 09:23:13;;;;;;;41.55;15.95;;;;;;;0.55;93.60;98292.22;5328918;27;20020;-81
2023/01/28 09:25:39;;;;;;;35.97;13.85;;;;;;;0.38;94.81;98285.41;5309146;27;20055;-81
2023/01/28 09:28:06;;;;;;;35.55;14.23;;;;;;;1.04;92.46;98293.87;5328759;27;20028;-81
2023/01/28 09:30:34;;;;;;;35.53;14.55;;;;;;;0.91;90.39;98289.66;5328693;27;20154;-81
2023/01/28 09:33:03;;;;;;;38.15;13.40;;;;;;;1.05;91.64;98288.81;5329173;27;20113;-81
2023/01/28 09:35:30;;;;;;;33.40;11.70;;;;;;;0.71;91.35;98292.22;5328684;27;20079;-81
2023/01/28 09:37:57;;;;;;;;;;;;;;;0.75;93.07;98289.69;5329727;27;20057;-81
2023/01/28 09:40:56;;;;;;;35.67;13.70;;;;;;;0.69;91.99;98289.69;5329539;27;19960;-81
2023/01/28 09:43:43;;;;;;;34.13;12.48;;;;;;;0.86;91.25;98293.06;5274269;27;20400;-81
2023/01/28 09:46:12;;;;;;;36.35;14.45;;;;;;;0.63;91.55;98294.75;5330535;27;20159;-81
2023/01/28 09:48:46;;;;;;;34.22;12.35;;;;;;;1.23;89.46;98293.03;5330509;27;20056;-81
2023/01/28 09:51:26;;;;;;;40.30;15.13;;;;;;;1.04;89.84;98287.09;5310775;27;20687;-81
2023/01/28 09:53:54;;;;;;;32.60;14.68;;;;;;;1.24;91.17;98292.16;5330299;27;20025;-81
2023/01/28 09:56:25;;;;;;;35.15;12.63;;;;;;;1.50;87.77;98296.38;5310185;27;20707;-81
2023/01/28 09:58:52;;;;;;;38.78;14.65;;;;;;;1.33;89.15;98294.69;5310594;27;20060;-81
2023/01/28 10:01:36;;;;;;;40.20;15.57;;;;;;;1.25;89.56;98298.09;5310510;27;20053;-81
2023/01/28 10:04:08;;;;;;;38.58;15.07;;;;;;;1.26;89.89;98303.19;5330371;27;20025;-82
2023/01/28 10:06:53;;;;;;;40.10;14.98;;;;;;;1.28;89.11;98296.41;5310873;27;20065;-81
2023/01/28 10:10:14;;;;;;;38.25;14.30;;;;;;;1.55;87.82;98305.66;5330380;27;20057;-81
2023/01/28 10:13:19;;;;;;;40.28;15.50;;;;;;;1.68;86.69;98301.37;5262683;27;20085;-82
2023/01/28 10:16:23;;;;;;;35.25;15.38;;;;;;;1.88;85.14;98306.41;5311480;27;20056;-81
2023/01/28 10:19:06;;;;;;;35.58;12.75;;;;;;;1.70;86.17;98302.22;5330763;27;20045;-82
2023/01/28 10:21:40;;;;;;;37.65;15.18;;;;;;;1.64;87.18;98298.00;5330607;27;20067;-81
2023/01/28 10:24:10;;;;;;;40.53;14.60;;;;;;;1.70;86.55;98302.22;5311442;27;20048;-81
2023/01/28 10:26:40;;;;;;;37.97;16.17;;;;;;;1.29;88.73;98303.19;5310548;27;20067;-81
2023/01/28 10:29:18;;;;;;;37.45;15.50;;;;;;;1.88;86.07;98306.41;5330257;27;20052;-81
2023/01/28 10:32:10;;;;;;;43.90;16.27;;;;;;;1.88;84.81;98297.06;5331199;27;20789;-82
2023/01/28 10:34:38;;;;;;;43.45;16.48;;;;;;;1.65;86.54;98301.41;5331003;27;20020;-81
2023/01/28 10:37:04;;;;;;;39.47;14.38;;;;;;;1.64;87.21;98305.62;5311534;27;20064;-81
2023/01/28 10:39:31;;;;;;;;;;;;;;;1.68;86.39;98298.84;5330865;27;20032;-82
2023/01/28 10:41:58;;;;;;;37.65;16.60;;;;;;;1.61;86.28;98304.81;5311830;27;19960;-81
2023/01/28 10:44:33;;;;;;;45.67;17.35;;;;;;;1.60;87.02;98313.28;5331241;27;20028;-81
2023/01/28 10:47:04;;;;;;;39.72;16.08;;;;;;;1.76;85.32;98307.28;5311282;27;20109;-81
2023/01/28 10:49:31;;;;;;;35.25;14.87;;;;;;;1.63;86.84;98309.03;5311394;27;20049;-81
2023/01/28 10:51:58;;;;;;;37.10;15.40;;;;;;;1.93;86.30;98302.16;5331185;27;20076;-81
2023/01/28 10:54:26;;;;;;;;;;;;;;;1.58;87.29;98304.81;5311585;27;20039;-81
2023/01/28 10:57:01;;;;;;;38.03;15.23;;;;;;;1.65;87.89;98301.41;5311665;27;19960;-81
2023/01/28 10:59:35;;;;;;;41.78;15.27;;;;;;;1.59;86.97;98291.22;5311937;27;20419;-81
2023/01/28 11:02:21;;;;;;;43.17;15.82;;;;;;;1.61;87.37;98298.03;5311603;27;20065;-81
2023/01/28 11:05:17;;;;;;;39.17;16.15;;;;;;;0.93;90.36;98296.44;5312063;27;20060;-81
2023/01/28 11:07:44;;;;;;;35.75;14.63;;;;;;;1.13;89.23;98296.41;5331426;27;20025;-82
2023/01/28 11:10:25;;;;;;;42.53;15.45;;;;;;;1.85;86.72;98296.25;5331208;27;20160;-81
2023/01/28 11:12:59;;;;;;;41.45;15.43;;;;;;;1.51;87.77;98300.59;5331683;27;20109;-81
2023/01/28 11:15:26;;;;;;;43.40;16.65;;;;;;;1.59;87.81;98298.84;5312267;27;20036;-82
2023/01/28 11:17:59;;;;;;;40.35;15.15;;;;;;;1.42;88.66;98293.84;5312260;27;20048;-81
2023/01/28 11:20:37;;;;;;;41.35;16.62;;;;;;;1.61;87.26;98292.94;5331405;27;20048;-81
2023/01/28 11:23:04;;;;;;;40.55;15.45;;;;;;;1.62;88.81;98289.53;5312624;27;20079;-81
2023/01/28 11:25:35;;;;;;;39.38;15.88;;;;;;;2.00;86.29;98293.63;5331299;27;20075;-81
2023/01/28 11:28:07;;;;;;;41.63;16.37;;;;;;;1.44;87.93;98297.22;5331392;27;20025;-82
2023/01/28 11:30:39;;;;;;;34.53;14.52;;;;;;;1.77;86.29;98295.41;5312486;27;20071;-81
2023/01/28 11:33:16;;;;;;;38.58;15.50;;;;;;;1.71;86.60;98296.31;5331163;27;20040;-81
2023/01/28 11:35:54;;;;;;;34.83;14.15;;;;;;;1.51;88.02;98293.81;5311671;27;20075;-81
2023/01/28 11:38:23;;;;;;;38.00;15.95;;;;;;;1.60;87.87;98288.72;5331842;27;20052;-81
2023/01/28 11:40:55;;;;;;;40.83;17.08;;;;;;;1.94;86.15;98296.22;5331369;27;20041;-81
2023/01/28 11:43:27;;;;;;;38.38;15.68;;;;;;;1.37;88.85;98288.75;5332088;27;20136;-82
2023/01/28 11:46:12;;;;;;;41.33;14.70;;;;;;;1.53;88.26;98284.47;5312922;27;20109;-81
2023/01/28 11:48:46;;;;;;;41.30;15.85;;;;;;;1.77;87.83;98290.31;5331554;27;20053;-81
2023/01/28 11:51:29;;;;;;;42.92;16.65;;;;;;;1.83;86.64;98288.63;5332096;27;20044;-81
2023/01/28 11:54:32;;;;;;;40.55;14.93;;;;;;;1.77;88.11;98296.25;5331920;27;20071;-81
2023/01/28 11:57:17;;;;;;;40.55;16.60;;;;;;;1.59;88.46;98293.78;5274553;27;20061;-81
2023/01/28 11:59:57;;;;;;;41.47;15.57;;;;;;;2.10;85.63;98295.25;5332434;27;20020;-81
2023/01/28 12:02:45;;;;;;;39.17;13.90;;;;;;;2.00;86.07;98286.81;5332207;27;20037;-81
2023/01/28 12:05:19;;;;;;;35.67;14.93;;;;;;;1.93;85.81;98287.72;5313562;27;20128;-81
2023/01/28 12:07:58;;;;;;;34.72;14.52;;;;;;;2.03;85.38;98284.28;5313494;27;20061;-81
2023/01/28 12:10:44;;;;;;;44.38;16.95;;;;;;;1.93;86.10;98282.62;5331891;27;20862;-82
2023/01/28 12:13:28;;;;;;;40.88;15.23;;;;;;;2.20;84.26;98285.87;5332046;27;20044;-82
2023/01/28 12:16:05;;;;;;;41.03;15.15;;;;;;;1.50;87.86;98289.59;5295703;27;20072;-81
2023/01/28 12:19:12;;;;;;;40.35;16.00;;;;;;;2.07;86.27;98290.19;5332397;27;20066;-82